Time;durP1;ratioP1;P1;durP2;ratioP2;P2;SDS_P1;SDS_P2;PMS_P1;PMS_P2;Temp;Humidity;BMP_temperature;BMP_pressure;BME280_temperature;BME280_humidity;BME280_pressure;Samples;Min_cycle;Max_cycle;Signal;HPM_P1;HPM_P2
2022/10/13 00:00:29;;;;;;;3.30;2.08;;;;;;;17.49;59.50;101912.09;6316919;22;20005;-81
2022/10/13 00:02:58;;;;;;;3.65;2.28;;;;;;;17.48;59.72;101912.94;6343281;22;20003;-81
2022/10/13 00:05:24;;;;;;;5.75;2.40;;;;;;;17.50;59.50;101908.59;6315328;22;20148;-82
2022/10/13 00:07:49;;;;;;;2.92;1.73;;;;;;;17.50;59.54;101897.34;6264872;22;20010;-82
2022/10/13 00:10:14;;;;;;;4.00;2.20;;;;;;;17.48;59.34;101890.41;6264470;22;20335;-81
2022/10/13 00:12:40;;;;;;;3.92;2.03;;;;;;;17.50;59.62;101894.72;6316260;22;20002;-81
2022/10/13 00:15:07;;;;;;;4.60;2.30;;;;;;;17.48;59.49;101886.91;6343334;22;20419;-81
2022/10/13 00:17:35;;;;;;;3.75;2.22;;;;;;;17.48;59.71;101889.50;6317422;22;20064;-81
2022/10/13 00:20:01;;;;;;;3.28;2.30;;;;;;;17.48;59.39;101895.59;6317892;22;20330;-80
2022/10/13 00:22:26;;;;;;;2.80;1.85;;;;;;;17.48;59.57;101902.50;6346569;22;20069;-84
2022/10/13 00:24:52;;;;;;;4.18;1.98;;;;;;;17.48;59.52;101895.59;6318202;22;20002;-83
2022/10/13 00:27:18;;;;;;;3.22;1.90;;;;;;;17.48;59.64;101897.31;6316701;22;20406;-82
2022/10/13 00:29:44;;;;;;;4.05;2.08;;;;;;;17.46;59.65;101894.72;6289939;22;20010;-82
2022/10/13 00:32:10;;;;;;;4.07;1.90;;;;;;;17.47;59.46;101900.78;6315541;22;20380;-82
2022/10/13 00:34:37;;;;;;;2.67;1.77;;;;;;;17.48;59.63;101884.28;6315054;22;20018;-81
2022/10/13 00:37:03;;;;;;;3.08;1.90;;;;;;;17.46;59.52;101883.41;6315343;22;20449;-81
2022/10/13 00:39:28;;;;;;;3.17;1.80;;;;;;;17.48;59.52;101869.59;6314551;22;20093;-81
2022/10/13 00:41:55;;;;;;;2.97;1.90;;;;;;;17.48;59.64;101886.91;6313847;22;20006;-82
2022/10/13 00:44:51;;;;;;;3.33;2.00;;;;;;;17.48;59.54;101900.81;6314381;22;20002;-82
2022/10/13 00:47:18;;;;;;;3.60;2.05;;;;;;;17.48;59.82;101892.09;6314672;22;20051;-82
2022/10/13 00:49:44;;;;;;;2.83;1.80;;;;;;;17.46;59.83;101899.03;6288482;22;20142;-82
2022/10/13 00:52:10;;;;;;;3.03;2.08;;;;;;;17.48;59.62;101911.22;6287799;22;20422;-82
2022/10/13 00:54:35;;;;;;;3.15;2.03;;;;;;;17.48;59.58;101915.53;6288157;22;20050;-82
2022/10/13 00:57:02;;;;;;;3.33;1.80;;;;;;;17.46;59.87;101902.53;6314008;22;20060;-81
2022/10/13 00:59:28;;;;;;;3.15;1.80;;;;;;;17.48;59.66;101912.94;6341539;22;20085;-82
2022/10/13 01:01:56;;;;;;;4.30;2.00;;;;;;;17.47;59.72;101904.25;6287448;22;20061;-81
2022/10/13 01:04:25;;;;;;;3.60;2.13;;;;;;;17.48;59.53;101906.00;6314573;22;20007;-82
2022/10/13 01:06:52;;;;;;;3.28;2.03;;;;;;;17.48;59.66;101899.91;6314065;22;20011;-82
2022/10/13 01:09:17;;;;;;;2.22;1.52;;;;;;;17.47;59.78;101898.19;6288014;22;20022;-82
2022/10/13 01:12:09;;;;;;;2.55;1.88;;;;;;;17.47;59.79;101888.63;6313130;22;20002;-81
2022/10/13 01:15:07;;;;;;;3.50;1.73;;;;;;;17.47;59.58;101893.84;6313560;22;20006;-82
2022/10/13 01:17:41;;;;;;;3.20;1.73;;;;;;;17.46;59.63;101888.63;6340812;22;20488;-83
2022/10/13 01:20:40;;;;;;;2.42;1.77;;;;;;;17.46;59.43;101889.50;6312554;22;20007;-81
2022/10/13 01:23:26;;;;;;;2.42;1.70;;;;;;;17.46;59.51;101886.91;6340263;22;20025;-81
2022/10/13 01:26:10;;;;;;;4.07;1.80;;;;;;;17.46;59.75;101878.22;6312276;22;19998;-81
2022/10/13 01:28:35;;;;;;;;;;;;;;;17.46;59.74;101889.50;6313009;22;20011;-81
2022/10/13 01:31:10;;;;;;;4.37;1.80;;;;;;;17.46;59.33;101881.72;6312637;22;19981;-81
2022/10/13 01:33:38;;;;;;;4.10;2.03;;;;;;;17.46;59.55;101879.09;6340305;22;20225;-82
2022/10/13 01:36:23;;;;;;;2.50;1.63;;;;;;;17.46;59.63;101878.22;6311957;22;20072;-81
2022/10/13 01:38:56;;;;;;;2.47;1.60;;;;;;;17.45;59.76;101879.09;6312655;22;20014;-80
2022/10/13 01:41:40;;;;;;;2.78;1.73;;;;;;;17.45;59.59;101877.34;6312909;22;20006;-81
2022/10/13 01:44:25;;;;;;;3.08;1.70;;;;;;;17.43;59.73;101866.06;6312847;22;20014;-80
2022/10/13 01:46:52;;;;;;;3.20;1.80;;;;;;;17.45;59.88;101866.06;6341205;22;20010;-81
2022/10/13 01:49:22;;;;;;;2.67;1.65;;;;;;;17.45;59.76;101881.69;6286569;22;20022;-80
2022/10/13 01:51:48;;;;;;;3.08;1.90;;;;;;;17.43;59.90;101876.47;6312118;22;20003;-81
2022/10/13 01:54:14;;;;;;;2.40;1.52;;;;;;;17.44;59.84;101857.41;6312645;22;20006;-82
2022/10/13 01:56:39;;;;;;;2.70;1.70;;;;;;;17.45;59.79;101860.88;6312620;22;20002;-81
2022/10/13 01:59:10;;;;;;;2.30;1.67;;;;;;;17.45;59.91;101858.25;6312532;22;20018;-81
2022/10/13 02:01:45;;;;;;;2.63;1.85;;;;;;;17.46;59.74;101841.78;6312245;22;20015;-81
2022/10/13 02:04:13;;;;;;;3.85;1.85;;;;;;;17.45;59.55;101840.91;6339779;22;20363;-81
2022/10/13 02:06:47;;;;;;;2.42;1.60;;;;;;;17.45;59.49;101830.50;6312246;22;20034;-81
2022/10/13 02:09:30;;;;;;;2.45;1.63;;;;;;;17.45;59.60;101832.25;6311846;22;20002;-81
2022/10/13 02:12:05;;;;;;;3.25;1.85;;;;;;;17.44;59.77;101833.09;6311903;22;20007;-82
2022/10/13 02:14:33;;;;;;;3.00;1.88;;;;;;;17.45;59.67;101845.25;6311778;22;20007;-81
2022/10/13 02:17:02;;;;;;;2.97;1.63;;;;;;;17.46;59.70;101834.88;6311809;22;20768;-80
2022/10/13 02:19:29;;;;;;;2.90;1.70;;;;;;;17.43;59.76;101827.03;6311910;22;20011;-80
2022/10/13 02:21:57;;;;;;;2.20;1.60;;;;;;;17.43;59.93;101826.16;6312326;22;20423;-80
2022/10/13 02:24:22;;;;;;;3.53;1.92;;;;;;;17.44;59.76;101815.78;6339456;22;20002;-81
2022/10/13 02:26:49;;;;;;;3.30;1.77;;;;;;;17.44;59.80;101815.78;6286171;22;20014;-80
2022/10/13 02:29:16;;;;;;;2.25;1.48;;;;;;;17.43;59.70;101811.41;6340305;22;20052;-80
2022/10/13 02:31:43;;;;;;;2.90;1.58;;;;;;;17.43;59.83;101808.81;6339407;22;20022;-80
2022/10/13 02:34:09;;;;;;;2.67;1.60;;;;;;;17.42;59.78;101799.28;6311699;22;20007;-80
2022/10/13 02:36:36;;;;;;;2.65;1.70;;;;;;;17.43;59.78;101800.13;6311606;22;20019;-80
2022/10/13 02:39:03;;;;;;;3.15;1.60;;;;;;;17.43;60.10;101803.59;6339394;22;20003;-80
2022/10/13 02:41:28;;;;;;;2.70;1.55;;;;;;;17.43;59.63;101798.41;6339422;22;20034;-80
2022/10/13 02:43:53;;;;;;;2.42;1.60;;;;;;;17.43;60.00;101789.72;6311772;22;20086;-80
2022/10/13 02:46:19;;;;;;;3.15;1.55;;;;;;;17.43;59.58;101793.19;6340042;22;20472;-80
2022/10/13 02:48:44;;;;;;;3.08;1.83;;;;;;;17.42;59.57;101791.47;6313822;22;20006;-80
2022/10/13 02:51:10;;;;;;;1.80;1.45;;;;;;;17.43;59.84;101790.59;6313775;22;20064;-80
2022/10/13 02:53:35;;;;;;;2.20;1.42;;;;;;;17.42;59.92;101778.47;6341284;22;20330;-80
2022/10/13 02:56:00;;;;;;;3.45;1.60;;;;;;;17.44;59.65;101786.25;6313773;22;20003;-80
2022/10/13 02:58:26;;;;;;;2.35;1.65;;;;;;;17.43;59.91;101779.31;6313557;22;20034;-80
2022/10/13 03:00:51;;;;;;;3.05;1.77;;;;;;;17.44;59.78;101781.03;6287513;22;20465;-80
2022/10/13 03:03:16;;;;;;;2.10;1.58;;;;;;;17.43;59.98;101785.38;6313490;22;20434;-81
2022/10/13 03:05:43;;;;;;;1.92;1.40;;;;;;;17.43;59.79;101782.78;6287489;22;20338;-80
2022/10/13 03:08:08;;;;;;;2.80;1.70;;;;;;;17.42;60.16;101775.84;6288196;22;20437;-80
2022/10/13 03:10:34;;;;;;;2.53;1.52;;;;;;;17.42;60.10;101783.66;6287716;22;20034;-80
2022/10/13 03:12:59;;;;;;;2.75;1.50;;;;;;;17.42;59.70;101781.06;6314820;22;20002;-80
2022/10/13 03:15:25;;;;;;;1.95;1.50;;;;;;;17.43;59.59;101772.38;6339378;22;20056;-80
2022/10/13 03:17:50;;;;;;;1.98;1.35;;;;;;;17.43;60.07;101777.56;6287507;22;20452;-80
2022/10/13 03:20:16;;;;;;;2.35;1.45;;;;;;;17.42;60.00;101774.97;6313208;22;20093;-80
2022/10/13 03:22:41;;;;;;;3.05;1.50;;;;;;;17.43;59.85;101776.72;6313149;22;19999;-81
2022/10/13 03:25:07;;;;;;;2.45;1.50;;;;;;;17.42;59.73;101773.25;6313319;22;20041;-80
2022/10/13 03:27:32;;;;;;;2.70;1.60;;;;;;;17.42;59.97;101773.25;6313298;22;20007;-80
2022/10/13 03:29:58;;;;;;;2.40;1.75;;;;;;;17.43;59.97;101769.78;6313424;22;20011;-80
2022/10/13 03:32:23;;;;;;;2.90;1.65;;;;;;;17.40;59.98;101764.56;6340803;22;20030;-80
2022/10/13 03:34:50;;;;;;;2.20;1.60;;;;;;;17.44;59.89;101765.44;6340591;22;20488;-80
2022/10/13 03:37:16;;;;;;;3.42;2.00;;;;;;;17.42;60.08;101759.34;6340880;22;20030;-80
2022/10/13 03:39:41;;;;;;;2.85;1.58;;;;;;;17.43;59.93;101766.31;6313203;22;20002;-80
2022/10/13 03:42:08;;;;;;;2.00;1.60;;;;;;;17.41;60.05;101763.69;6340848;22;20330;-80
2022/10/13 03:44:33;;;;;;;2.45;1.50;;;;;;;17.41;59.96;101758.47;6313300;22;20013;-80
2022/10/13 03:46:58;;;;;;;2.78;1.60;;;;;;;17.42;59.83;101761.94;6261782;22;20077;-80
2022/10/13 03:49:24;;;;;;;3.25;1.70;;;;;;;17.42;60.02;101755.03;6287194;22;20056;-80
2022/10/13 03:51:49;;;;;;;2.35;1.60;;;;;;;17.43;60.08;101763.72;6313215;22;20427;-80
2022/10/13 03:54:15;;;;;;;2.20;1.63;;;;;;;17.42;60.09;101757.63;6341350;22;20011;-80
2022/10/13 03:56:41;;;;;;;2.10;1.42;;;;;;;17.41;59.99;101763.69;6287749;22;20007;-80
2022/10/13 03:59:07;;;;;;;2.63;1.63;;;;;;;17.41;60.17;101760.22;6261807;22;20330;-82
2022/10/13 04:01:33;;;;;;;2.00;1.40;;;;;;;17.42;59.94;101765.44;6340610;22;20006;-82
2022/10/13 04:04:01;;;;;;;2.58;1.60;;;;;;;17.43;59.99;101766.31;6339271;22;20007;-80
2022/10/13 04:06:27;;;;;;;2.58;1.70;;;;;;;17.43;59.99;101761.09;6340975;22;19998;-80
2022/10/13 04:08:53;;;;;;;3.53;1.55;;;;;;;17.43;60.14;101758.50;6312853;22;20034;-79
2022/10/13 04:11:19;;;;;;;5.75;2.97;;;;;;;17.44;60.09;101760.22;6340521;22;20003;-79
2022/10/13 04:13:45;;;;;;;11.23;5.57;;;;;;;17.43;60.07;101745.50;6287249;22;20115;-78
2022/10/13 04:16:30;;;;;;;13.20;5.97;;;;;;;17.43;59.99;101753.28;6287024;22;20030;-79
2022/10/13 04:19:02;;;;;;;11.60;4.60;;;;;;;17.42;60.15;101734.22;6286461;22;20075;-79
2022/10/13 04:21:29;;;;;;;11.35;4.60;;;;;;;17.42;60.15;101735.94;6313012;22;20377;-81
2022/10/13 04:23:58;;;;;;;9.23;4.25;;;;;;;17.43;60.00;101740.28;6312803;22;20320;-80
2022/10/13 04:26:27;;;;;;;9.27;4.20;;;;;;;17.43;60.08;101741.16;6313605;22;20022;-80
2022/10/13 04:28:53;;;;;;;11.27;3.88;;;;;;;17.43;60.01;101740.28;6313079;22;20007;-79
2022/10/13 04:31:21;;;;;;;9.32;4.30;;;;;;;17.43;60.06;101742.88;6313417;22;20089;-79
2022/10/13 04:33:47;;;;;;;10.32;3.70;;;;;;;17.43;60.02;101743.75;6312985;22;20398;-79
2022/10/13 04:36:13;;;;;;;10.23;4.07;;;;;;;17.44;60.21;101742.91;6312956;22;20018;-79
2022/10/13 04:38:39;;;;;;;7.97;3.60;;;;;;;17.44;60.20;101742.00;6313713;22;20082;-79
2022/10/13 04:41:06;;;;;;;8.95;3.80;;;;;;;17.43;60.01;101742.88;6312769;22;20018;-79
2022/10/13 04:43:33;;;;;;;8.23;3.72;;;;;;;17.43;59.61;101742.88;6312672;22;20045;-79
2022/10/13 04:46:04;;;;;;;9.18;4.00;;;;;;;17.43;60.28;101746.34;6312420;22;20363;-78
2022/10/13 04:48:30;;;;;;;8.98;3.60;;;;;;;17.43;60.22;101740.28;6312568;22;20030;-79
2022/10/13 04:51:04;;;;;;;7.22;3.38;;;;;;;17.43;60.40;101742.88;6312349;22;20438;-80
2022/10/13 04:53:30;;;;;;;7.28;3.42;;;;;;;17.44;60.28;101742.00;6312524;22;20506;-79
2022/10/13 04:55:59;;;;;;;7.32;3.00;;;;;;;17.44;60.36;101747.22;6312812;22;20037;-79
2022/10/13 04:58:25;;;;;;;6.80;3.30;;;;;;;17.44;60.37;101744.63;6287806;22;20042;-79
2022/10/13 05:00:51;;;;;;;9.90;3.53;;;;;;;17.44;60.14;101742.00;6287180;22;20073;-79
2022/10/13 05:03:16;;;;;;;6.47;3.30;;;;;;;17.44;60.25;101739.41;6313070;22;20085;-80
2022/10/13 05:05:42;;;;;;;6.50;2.90;;;;;;;17.44;60.39;101742.91;6313256;22;20019;-79
2022/10/13 05:08:07;;;;;;;9.30;3.60;;;;;;;17.44;60.54;101736.81;6287744;22;20007;-80
2022/10/13 05:10:32;;;;;;;7.88;3.20;;;;;;;17.44;60.32;101737.69;6261508;22;20002;-79
2022/10/13 05:12:58;;;;;;;9.43;3.35;;;;;;;17.42;60.29;101736.81;6287335;22;20011;-79
2022/10/13 05:15:23;;;;;;;6.75;3.20;;;;;;;17.44;60.37;101734.22;6287295;22;20444;-79
2022/10/13 05:17:48;;;;;;;7.78;2.95;;;;;;;17.43;60.22;101730.75;6261280;22;20006;-79
2022/10/13 05:20:15;;;;;;;6.50;3.30;;;;;;;17.43;60.35;101729.88;6261356;22;20090;-79
2022/10/13 05:22:40;;;;;;;5.55;2.72;;;;;;;17.43;60.24;101728.13;6312839;22;20029;-79
2022/10/13 05:25:06;;;;;;;6.45;2.90;;;;;;;17.43;60.46;101728.13;6286533;22;20442;-80
2022/10/13 05:27:32;;;;;;;7.53;3.08;;;;;;;17.43;60.49;101730.75;6286602;22;20015;-79
2022/10/13 05:29:57;;;;;;;5.60;3.03;;;;;;;17.43;60.51;101735.09;6312762;22;20033;-79
2022/10/13 05:32:22;;;;;;;4.97;2.80;;;;;;;17.43;60.47;101730.75;6286871;22;20431;-79
2022/10/13 05:34:48;;;;;;;6.22;3.10;;;;;;;17.44;60.30;101736.81;6312447;22;20316;-79
2022/10/13 05:37:18;;;;;;;9.07;3.42;;;;;;;17.50;60.54;101729.03;6286328;22;20103;-79
2022/10/13 05:39:43;;;;;;;13.95;4.38;;;;;;;17.50;60.49;101726.44;6313143;22;20388;-79
2022/10/13 05:42:09;;;;;;;8.07;3.97;;;;;;;17.48;60.57;101726.47;6312337;22;20006;-80
2022/10/13 05:44:36;;;;;;;7.57;4.05;;;;;;;17.46;60.51;101728.19;6339940;22;20010;-81
2022/10/13 05:47:02;;;;;;;9.55;3.85;;;;;;;17.46;60.31;101732.50;6339640;22;20082;-81
2022/10/13 05:49:27;;;;;;;10.15;4.18;;;;;;;17.45;60.73;101733.38;6286516;22;20030;-80
2022/10/13 05:51:58;;;;;;;8.02;3.75;;;;;;;17.42;60.45;101731.63;6286657;22;20041;-81
2022/10/13 05:54:32;;;;;;;8.73;3.40;;;;;;;17.45;60.46;101738.56;6312309;22;20018;-80
2022/10/13 05:57:03;;;;;;;7.07;3.38;;;;;;;17.45;60.69;101730.75;6311840;22;20006;-81
2022/10/13 05:59:32;;;;;;;6.78;3.78;;;;;;;17.45;60.64;101738.56;6339597;22;19995;-80
2022/10/13 06:01:59;;;;;;;7.95;3.75;;;;;;;17.43;60.54;101732.47;6312589;22;20034;-82
2022/10/13 06:04:33;;;;;;;9.80;3.78;;;;;;;17.43;60.39;101728.13;6313440;22;20057;-81
2022/10/13 06:06:59;;;;;;;6.78;3.47;;;;;;;17.43;60.74;101735.09;6313700;22;20032;-84
2022/10/13 06:09:30;;;;;;;8.10;3.60;;;;;;;17.43;60.36;101725.53;6262799;22;20010;-85
2022/10/13 06:11:58;;;;;;;8.88;4.03;;;;;;;17.42;60.51;101721.22;6313775;22;20011;-84
2022/10/13 06:14:23;;;;;;;7.60;3.53;;;;;;;17.43;60.41;101725.53;6288342;22;20003;-84
2022/10/13 06:16:48;;;;;;;6.85;3.33;;;;;;;17.42;60.63;101729.03;6261756;22;20013;-84
2022/10/13 06:19:14;;;;;;;6.55;3.35;;;;;;;17.43;60.55;101722.06;6286432;22;20043;-81
2022/10/13 06:21:39;;;;;;;7.53;3.20;;;;;;;17.43;60.58;101725.53;6287572;22;20056;-81
2022/10/13 06:24:05;;;;;;;6.30;3.75;;;;;;;17.43;60.58;101722.94;6343428;22;20085;-81
2022/10/13 06:26:30;;;;;;;7.72;3.60;;;;;;;17.44;60.45;101723.81;6315775;22;20002;-80
2022/10/13 06:28:55;;;;;;;8.00;3.55;;;;;;;17.42;60.55;101717.72;6289406;22;20088;-81
2022/10/13 06:31:21;;;;;;;5.50;3.20;;;;;;;17.42;60.46;101718.59;6315460;22;20003;-82
2022/10/13 06:33:46;;;;;;;7.30;3.35;;;;;;;17.42;60.57;101716.00;6289490;22;20034;-81
2022/10/13 06:36:11;;;;;;;6.47;3.05;;;;;;;17.41;60.53;101706.44;6315244;22;20006;-82
2022/10/13 06:38:37;;;;;;;6.40;3.47;;;;;;;17.42;60.64;101707.31;6342806;22;20026;-81
2022/10/13 06:41:04;;;;;;;4.90;2.90;;;;;;;17.44;60.58;101714.28;6289403;22;20006;-81
2022/10/13 06:43:30;;;;;;;6.35;3.28;;;;;;;17.43;60.48;101716.88;6343315;22;20066;-80
2022/10/13 06:45:59;;;;;;;6.68;2.70;;;;;;;17.43;60.58;101715.13;6290911;22;20331;-80
2022/10/13 06:48:26;;;;;;;6.00;3.10;;;;;;;17.43;60.71;101716.88;6315220;22;20006;-82
2022/10/13 06:50:52;;;;;;;5.95;2.90;;;;;;;17.44;60.53;101727.28;6342838;22;20390;-81
2022/10/13 06:53:18;;;;;;;5.82;2.92;;;;;;;17.44;60.18;101719.50;6315285;22;20003;-81
2022/10/13 06:55:43;;;;;;;5.18;2.80;;;;;;;17.42;60.53;101710.81;6315061;22;20499;-82
2022/10/13 06:58:09;;;;;;;6.35;2.75;;;;;;;17.43;60.17;101706.47;6315595;22;20002;-81
2022/10/13 07:00:36;;;;;;;5.22;3.00;;;;;;;17.44;60.42;101710.78;6342940;22;20441;-81
2022/10/13 07:03:02;;;;;;;4.60;2.70;;;;;;;17.43;60.49;101704.72;6315851;22;20018;-81
2022/10/13 07:05:27;;;;;;;6.13;2.72;;;;;;;17.44;60.74;101705.59;6289353;22;20018;-81
2022/10/13 07:07:53;;;;;;;6.10;2.97;;;;;;;17.43;60.46;101702.13;6263738;22;20373;-81
2022/10/13 07:10:18;;;;;;;5.07;2.72;;;;;;;17.44;60.57;101703.88;6289843;22;20011;-82
2022/10/13 07:12:44;;;;;;;5.00;2.63;;;;;;;17.44;60.44;101700.38;6316966;22;20021;-81
2022/10/13 07:15:09;;;;;;;6.35;2.88;;;;;;;17.43;60.61;101698.66;6290675;22;20011;-82
2022/10/13 07:17:35;;;;;;;5.57;2.70;;;;;;;17.43;60.47;101704.72;6316996;22;20006;-81
2022/10/13 07:20:02;;;;;;;5.07;2.75;;;;;;;17.43;60.32;101696.91;6265108;22;20013;-81
2022/10/13 07:22:28;;;;;;;5.60;2.90;;;;;;;17.44;60.53;101698.69;6343477;22;20003;-81
2022/10/13 07:24:53;;;;;;;6.57;3.10;;;;;;;17.43;60.71;101691.72;6316315;22;20399;-81
2022/10/13 07:27:19;;;;;;;5.68;2.85;;;;;;;17.46;60.37;101690.84;6263953;22;20449;-81
2022/10/13 07:29:44;;;;;;;5.03;2.60;;;;;;;17.44;60.41;101696.06;6315227;22;20007;-81
2022/10/13 07:32:09;;;;;;;5.05;2.50;;;;;;;17.44;60.45;101693.47;6314810;22;20455;-81
2022/10/13 07:34:35;;;;;;;3.67;2.45;;;;;;;17.46;60.39;101696.06;6313867;22;20013;-84
2022/10/13 07:37:00;;;;;;;4.50;2.50;;;;;;;17.46;60.35;101698.66;6315028;22;20023;-84
2022/10/13 07:39:26;;;;;;;5.07;2.50;;;;;;;17.47;60.41;101701.28;6263275;22;20007;-84
2022/10/13 07:41:51;;;;;;;5.22;2.65;;;;;;;17.47;60.53;101703.00;6314719;22;20010;-87
2022/10/13 07:44:17;;;;;;;4.40;2.42;;;;;;;17.47;60.40;101706.47;6262770;22;20007;-85
2022/10/13 07:46:43;;;;;;;4.15;2.47;;;;;;;17.47;60.33;101710.81;6342114;22;20322;-84
2022/10/13 07:49:08;;;;;;;3.85;2.35;;;;;;;17.48;60.20;101709.94;6262824;22;20011;-84
2022/10/13 07:51:33;;;;;;;4.03;2.40;;;;;;;17.48;60.45;101707.34;6314247;22;20009;-86
2022/10/13 07:53:59;;;;;;;5.18;2.50;;;;;;;17.50;60.31;101709.97;6288079;22;20010;-86
2022/10/13 07:56:24;;;;;;;4.15;2.10;;;;;;;17.49;60.26;101709.09;6288652;22;20366;-84
2022/10/13 07:58:50;;;;;;;3.55;1.90;;;;;;;17.48;60.35;101705.63;6288483;22;20414;-85
2022/10/13 08:01:15;;;;;;;3.30;2.13;;;;;;;17.49;60.50;101711.69;6263097;22;20011;-86
2022/10/13 08:03:42;;;;;;;5.18;2.58;;;;;;;17.50;60.45;101705.63;6314406;22;20013;-85
2022/10/13 08:06:08;;;;;;;4.05;2.10;;;;;;;17.50;60.44;101699.56;6313937;22;20007;-84
2022/10/13 08:08:35;;;;;;;4.18;2.30;;;;;;;17.50;60.40;101703.00;6313742;22;20061;-85
2022/10/13 08:11:07;;;;;;;3.80;2.20;;;;;;;17.51;60.34;101715.19;6289297;22;20030;-82
2022/10/13 08:13:32;;;;;;;5.07;2.45;;;;;;;17.51;60.40;101722.09;6341729;22;20043;-85
2022/10/13 08:16:02;;;;;;;3.17;2.03;;;;;;;17.50;60.47;101710.81;6288145;22;20045;-84
2022/10/13 08:18:29;;;;;;;4.63;2.17;;;;;;;17.53;60.23;101713.47;6288462;22;20010;-84
2022/10/13 08:20:58;;;;;;;4.40;2.33;;;;;;;17.52;60.31;101698.69;6339896;22;20441;-83
2022/10/13 08:23:23;;;;;;;3.53;2.13;;;;;;;17.56;60.34;101702.19;6313975;22;20006;-85
2022/10/13 08:25:49;;;;;;;3.03;1.88;;;;;;;17.58;60.21;101711.75;6314549;22;20371;-85
2022/10/13 08:28:19;;;;;;;3.20;2.08;;;;;;;17.60;60.06;101711.75;6289129;22;20003;-84
2022/10/13 08:30:45;;;;;;;3.38;2.03;;;;;;;17.60;60.16;101712.63;6313724;22;20002;-85
2022/10/13 08:33:11;;;;;;;4.13;1.90;;;;;;;17.61;60.33;101719.53;6313506;22;20007;-86
2022/10/13 08:35:36;;;;;;;3.10;2.00;;;;;;;17.60;60.13;101712.63;6313148;22;20021;-86
2022/10/13 08:38:02;;;;;;;3.15;1.75;;;;;;;17.58;60.48;101716.06;6287797;22;20103;-87
2022/10/13 08:40:27;;;;;;;3.45;1.75;;;;;;;17.56;60.38;101721.25;6313325;22;20086;-85
2022/10/13 08:42:53;;;;;;;3.38;1.95;;;;;;;17.53;60.31;101716.06;6288274;22;20002;-86
2022/10/13 08:45:28;;;;;;;3.83;2.17;;;;;;;17.54;60.44;101722.13;6290456;22;20042;-87
2022/10/13 08:48:02;;;;;;;2.67;1.70;;;;;;;17.53;60.41;101709.97;6315656;22;20013;-84
2022/10/13 08:50:35;;;;;;;3.03;1.83;;;;;;;17.52;60.35;101710.84;6344218;22;20063;-85
2022/10/13 08:53:03;;;;;;;4.45;1.92;;;;;;;17.52;60.29;101711.69;6314618;22;20003;-85
2022/10/13 08:55:39;;;;;;;3.85;2.10;;;;;;;17.52;60.37;101701.28;6315114;22;20007;-84
2022/10/13 08:58:17;;;;;;;3.47;1.80;;;;;;;17.52;60.14;101693.50;6313542;22;20020;-86
2022/10/13 09:00:43;;;;;;;2.97;1.67;;;;;;;17.54;60.29;101688.28;6313592;22;20003;-87
2022/10/13 09:03:22;;;;;;;4.18;2.00;;;;;;;17.57;60.41;101691.78;6313216;22;20003;-86
2022/10/13 09:06:27;;;;;;;3.30;1.75;;;;;;;17.58;60.15;101693.53;6341252;22;20078;-84
2022/10/13 09:09:02;;;;;;;;;;;;;;;17.59;60.22;101696.97;6334864;22;20011;-87
2022/10/13 09:11:31;;;;;;;3.03;1.65;;;;;;;17.58;60.25;101695.25;6313351;22;19903;-85
2022/10/13 09:13:59;;;;;;;2.80;1.75;;;;;;;17.57;60.36;101703.91;6313805;22;20014;-85
2022/10/13 09:16:34;;;;;;;2.72;1.58;;;;;;;17.55;60.22;101697.81;6313376;22;20035;-85
2022/10/13 09:19:19;;;;;;;3.10;1.60;;;;;;;17.54;60.33;101703.91;6313472;22;20321;-85
2022/10/13 09:21:45;;;;;;;2.88;1.70;;;;;;;17.53;60.46;101702.16;6314667;22;20012;-84
2022/10/13 09:24:18;;;;;;;2.50;1.55;;;;;;;17.54;60.31;101703.91;6287778;22;20013;-85
2022/10/13 09:26:45;;;;;;;3.13;1.83;;;;;;;17.53;60.28;101720.38;6313565;22;20007;-85
2022/10/13 09:29:25;;;;;;;3.85;1.60;;;;;;;17.51;60.54;101727.31;6313621;22;20013;-86
2022/10/13 09:31:53;;;;;;;2.85;1.40;;;;;;;17.51;60.31;101735.09;6313385;22;20002;-85
2022/10/13 09:34:18;;;;;;;2.72;1.50;;;;;;;17.51;60.31;101742.91;6313387;22;20085;-83
2022/10/13 09:36:58;;;;;;;3.33;1.60;;;;;;;17.49;60.48;101735.13;6342022;22;20014;-84
2022/10/13 09:39:24;;;;;;;3.00;1.40;;;;;;;17.50;60.34;101730.78;6313529;22;20346;-85
2022/10/13 09:41:50;;;;;;;3.13;1.67;;;;;;;17.49;60.57;101740.31;6313401;22;20014;-86
2022/10/13 09:44:25;;;;;;;3.85;1.60;;;;;;;17.51;60.25;101743.81;6287802;22;20014;-85
2022/10/13 09:46:54;;;;;;;2.33;1.30;;;;;;;17.52;60.31;101740.31;6313103;22;20052;-84
2022/10/13 09:49:38;;;;;;;3.28;1.73;;;;;;;17.51;60.29;101738.59;6313657;22;20011;-85
2022/10/13 09:52:15;;;;;;;2.03;1.40;;;;;;;17.53;60.34;101738.59;6312584;22;20007;-86
2022/10/13 09:54:46;;;;;;;3.20;1.83;;;;;;;17.55;60.43;101731.66;6340998;22;20070;-87
2022/10/13 09:57:17;;;;;;;2.15;1.30;;;;;;;17.56;60.24;101726.47;6312697;22;20498;-85
2022/10/13 09:59:49;;;;;;;2.88;1.50;;;;;;;17.57;60.42;101722.13;6313097;22;20093;-84
2022/10/13 10:02:22;;;;;;;2.60;1.50;;;;;;;17.59;60.25;101728.22;6340688;22;20013;-86
2022/10/13 10:04:51;;;;;;;2.50;1.45;;;;;;;17.61;59.97;101726.50;6340721;22;20003;-85
2022/10/13 10:07:24;;;;;;;2.92;1.60;;;;;;;17.61;60.32;101719.53;6313079;22;20437;-85
2022/10/13 10:09:54;;;;;;;2.25;1.60;;;;;;;17.61;60.31;101721.28;6313025;22;20048;-85
2022/10/13 10:12:23;;;;;;;2.63;1.50;;;;;;;17.59;60.34;101718.66;6312814;22;20044;-85
2022/10/13 10:14:49;;;;;;;1.88;1.20;;;;;;;17.59;60.18;101717.81;6312732;22;20005;-85
2022/10/13 10:17:45;;;;;;;2.67;1.40;;;;;;;17.58;60.11;101724.75;6312885;22;20027;-85
2022/10/13 10:20:31;;;;;;;2.38;1.42;;;;;;;17.58;60.15;101716.94;6313627;22;20089;-84
2022/10/13 10:23:04;;;;;;;2.78;1.50;;;;;;;17.59;60.20;101723.88;6314341;22;20377;-85
2022/10/13 10:25:58;;;;;;;;;;;;;;;17.59;60.28;101720.41;6313706;22;20123;-86
2022/10/13 10:28:36;;;;;;;2.35;1.42;;;;;;;17.60;60.24;101719.56;6340425;22;19929;-85
2022/10/13 10:31:39;;;;;;;3.42;1.25;;;;;;;17.61;60.20;101706.53;6313001;22;20015;-85
2022/10/13 10:34:44;;;;;;;2.13;1.25;;;;;;;17.64;60.04;101703.09;6313535;22;20379;-85
2022/10/13 10:37:13;;;;;;;2.45;1.30;;;;;;;17.66;60.05;101703.97;6312582;22;20090;-86
2022/10/13 10:39:56;;;;;;;2.72;1.40;;;;;;;17.66;60.27;101703.97;6313181;22;20013;-85
2022/10/13 10:42:43;;;;;;;3.13;1.40;;;;;;;17.68;60.10;101702.22;6312804;22;20081;-85
2022/10/13 10:45:30;;;;;;;2.30;1.23;;;;;;;17.67;59.99;101696.16;6340681;22;19999;-86
2022/10/13 10:48:27;;;;;;;2.10;1.33;;;;;;;17.66;60.05;101690.97;6313293;22;20002;-85
2022/10/13 10:50:53;;;;;;;1.88;1.40;;;;;;;17.64;60.17;101698.75;6309777;22;20006;-84
2022/10/13 10:53:45;;;;;;;2.15;1.30;;;;;;;17.65;60.29;101699.63;6287077;22;20064;-86
2022/10/13 10:56:26;;;;;;;2.78;1.27;;;;;;;17.65;60.06;101694.41;6312686;22;20003;-87
2022/10/13 10:59:28;;;;;;;1.83;1.23;;;;;;;17.66;60.17;101697.03;6340280;22;19999;-86
2022/10/13 11:01:59;;;;;;;1.38;1.00;;;;;;;17.67;60.25;101693.53;6260518;22;20437;-82
2022/10/13 11:04:32;;;;;;;1.98;1.08;;;;;;;17.69;60.22;101691.81;6313106;22;20422;-86
2022/10/13 11:06:57;;;;;;;2.15;1.20;;;;;;;17.73;60.30;101687.50;6340637;22;20055;-86
2022/10/13 11:09:43;;;;;;;2.13;1.10;;;;;;;17.76;60.07;101671.03;6313586;22;20085;-86
2022/10/13 11:12:20;;;;;;;1.65;1.10;;;;;;;17.78;60.07;101671.91;6263189;22;20011;-86
2022/10/13 11:14:47;;;;;;;2.63;1.40;;;;;;;17.78;59.86;101671.91;6314199;22;20019;-86
2022/10/13 11:17:18;;;;;;;2.28;1.13;;;;;;;17.76;59.92;101677.09;6314328;22;20014;-87
2022/10/13 11:19:45;;;;;;;2.63;1.20;;;;;;;17.76;60.08;101665.81;6314884;22;20011;-86
2022/10/13 11:22:19;;;;;;;2.00;1.30;;;;;;;17.75;60.01;101669.28;6314554;22;20003;-86
2022/10/13 11:24:48;;;;;;;2.08;1.20;;;;;;;17.73;60.14;101669.28;6314260;22;20085;-85
2022/10/13 11:27:13;;;;;;;1.60;1.00;;;;;;;17.73;60.10;101671.03;6341937;22;20048;-86
2022/10/13 11:29:55;;;;;;;1.52;1.10;;;;;;;17.70;59.98;101669.25;6341907;22;20026;-86
2022/10/13 11:32:29;;;;;;;1.73;0.85;;;;;;;17.70;60.06;101656.25;6314371;22;20030;-86
2022/10/13 11:35:03;;;;;;;1.73;1.08;;;;;;;17.72;60.20;101664.06;6341819;22;20475;-85
2022/10/13 11:37:56;;;;;;;2.72;1.23;;;;;;;17.70;60.14;101648.44;6313769;22;20011;-85